sensor_id;sensor_type;location;lat;lon;timestamp;pressure;altitude;pressure_sealevel;temperature;humidity
25084;BME280;13075;55.682;37.564;2023-03-09T00:01:24;97466.63;;;3.23;100.00
25084;BME280;13075;55.682;37.564;2023-03-09T00:03:51;97464.38;;;3.39;100.00
25084;BME280;13075;55.682;37.564;2023-03-09T00:06:17;97462.75;;;3.32;100.00
25084;BME280;13075;55.682;37.564;2023-03-09T00:08:43;97471.09;;;3.15;100.00
25084;BME280;13075;55.682;37.564;2023-03-09T00:11:09;97471.66;;;3.44;100.00
25084;BME280;13075;55.682;37.564;2023-03-09T00:13:35;97456.44;;;3.26;100.00
25084;BME280;13075;55.682;37.564;2023-03-09T00:16:21;97478.00;;;3.23;100.00
25084;BME280;13075;55.682;37.564;2023-03-09T00:18:47;97473.50;;;3.37;100.00
25084;BME280;13075;55.682;37.564;2023-03-09T00:21:14;97471.88;;;3.42;100.00
25084;BME280;13075;55.682;37.564;2023-03-09T00:24:01;97473.91;;;3.47;100.00
25084;BME280;13075;55.682;37.564;2023-03-09T00:26:27;97471.88;;;3.49;100.00
25084;BME280;13075;55.682;37.564;2023-03-09T00:28:52;97468.81;;;3.52;100.00
25084;BME280;13075;55.682;37.564;2023-03-09T00:31:18;97477.50;;;3.72;100.00
25084;BME280;13075;55.682;37.564;2023-03-09T00:33:47;97480.38;;;3.70;100.00
25084;BME280;13075;55.682;37.564;2023-03-09T00:36:14;97483.63;;;3.59;100.00
25084;BME280;13075;55.682;37.564;2023-03-09T00:38:40;97478.94;;;3.74;100.00
25084;BME280;13075;55.682;37.564;2023-03-09T00:41:08;97476.94;;;3.63;100.00
25084;BME280;13075;55.682;37.564;2023-03-09T00:43:34;97483.28;;;3.43;100.00
25084;BME280;13075;55.682;37.564;2023-03-09T00:45:59;97481.84;;;3.47;100.00
25084;BME280;13075;55.682;37.564;2023-03-09T00:48:25;97483.00;;;3.77;100.00
25084;BME280;13075;55.682;37.564;2023-03-09T00:50:51;97477.13;;;3.62;100.00
25084;BME280;13075;55.682;37.564;2023-03-09T00:53:16;97478.63;;;4.15;100.00
25084;BME280;13075;55.682;37.564;2023-03-09T00:55:42;97483.63;;;3.72;100.00
25084;BME280;13075;55.682;37.564;2023-03-09T00:58:09;97484.09;;;3.30;100.00
25084;BME280;13075;55.682;37.564;2023-03-09T01:03:16;97491.41;;;3.41;100.00
25084;BME280;13075;55.682;37.564;2023-03-09T01:05:43;97479.31;;;3.85;100.00
25084;BME280;13075;55.682;37.564;2023-03-09T01:08:09;97489.69;;;3.86;100.00
25084;BME280;13075;55.682;37.564;2023-03-09T01:10:38;97493.63;;;3.57;100.00
25084;BME280;13075;55.682;37.564;2023-03-09T01:13:03;97484.25;;;3.55;100.00
25084;BME280;13075;55.682;37.564;2023-03-09T01:15:29;97492.22;;;3.48;100.00
25084;BME280;13075;55.682;37.564;2023-03-09T01:17:55;97490.53;;;3.73;100.00
25084;BME280;13075;55.682;37.564;2023-03-09T01:20:21;97494.72;;;4.07;100.00
25084;BME280;13075;55.682;37.564;2023-03-09T01:22:47;97495.38;;;3.83;100.00
25084;BME280;13075;55.682;37.564;2023-03-09T01:25:12;97492.00;;;3.43;100.00
25084;BME280;13075;55.682;37.564;2023-03-09T01:27:38;97485.91;;;3.56;100.00
25084;BME280;13075;55.682;37.564;2023-03-09T01:30:05;97489.56;;;3.42;100.00
25084;BME280;13075;55.682;37.564;2023-03-09T01:32:31;97497.06;;;3.71;100.00
25084;BME280;13075;55.682;37.564;2023-03-09T01:34:56;97499.53;;;3.27;100.00
25084;BME280;13075;55.682;37.564;2023-03-09T01:37:22;97496.91;;;3.40;100.00
25084;BME280;13075;55.682;37.564;2023-03-09T01:39:48;97495.69;;;3.16;100.00
25084;BME280;13075;55.682;37.564;2023-03-09T01:42:13;97499.53;;;2.94;100.00
25084;BME280;13075;55.682;37.564;2023-03-09T01:44:39;97490.81;;;3.20;100.00
25084;BME280;13075;55.682;37.564;2023-03-09T01:47:05;97498.94;;;2.98;100.00
25084;BME280;13075;55.682;37.564;2023-03-09T01:49:40;97502.78;;;3.15;100.00
25084;BME280;13075;55.682;37.564;2023-03-09T01:57:26;97503.81;;;3.14;100.00
25084;BME280;13075;55.682;37.564;2023-03-09T01:59:55;97503.38;;;2.85;100.00
25084;BME280;13075;55.682;37.564;2023-03-09T02:02:25;97506.00;;;2.85;100.00
25084;BME280;13075;55.682;37.564;2023-03-09T02:04:56;97487.94;;;2.95;100.00
25084;BME280;13075;55.682;37.564;2023-03-09T02:07:23;97496.88;;;2.87;100.00
25084;BME280;13075;55.682;37.564;2023-03-09T02:09:55;97510.09;;;2.81;100.00
25084;BME280;13075;55.682;37.564;2023-03-09T02:12:24;97505.81;;;2.99;100.00
25084;BME280;13075;55.682;37.564;2023-03-09T02:14:51;97508.47;;;3.12;100.00
25084;BME280;13075;55.682;37.564;2023-03-09T02:17:17;97513.34;;;2.96;100.00
25084;BME280;13075;55.682;37.564;2023-03-09T02:22:37;97525.97;;;2.33;100.00
25084;BME280;13075;55.682;37.564;2023-03-09T02:25:21;97524.81;;;2.56;100.00
25084;BME280;13075;55.682;37.564;2023-03-09T02:27:50;97527.75;;;2.87;100.00
25084;BME280;13075;55.682;37.564;2023-03-09T02:30:17;97537.72;;;2.98;100.00
25084;BME280;13075;55.682;37.564;2023-03-09T02:32:42;97532.34;;;2.52;100.00
25084;BME280;13075;55.682;37.564;2023-03-09T02:35:10;97538.19;;;2.41;100.00
25084;BME280;13075;55.682;37.564;2023-03-09T02:37:40;97528.19;;;2.30;100.00
25084;BME280;13075;55.682;37.564;2023-03-09T02:40:21;97537.41;;;2.53;100.00
25084;BME280;13075;55.682;37.564;2023-03-09T02:42:50;97534.19;;;2.58;100.00
25084;BME280;13075;55.682;37.564;2023-03-09T02:45:19;97531.09;;;2.48;100.00
25084;BME280;13075;55.682;37.564;2023-03-09T02:47:48;97541.13;;;2.66;100.00
25084;BME280;13075;55.682;37.564;2023-03-09T02:50:16;97539.94;;;2.88;100.00
25084;BME280;13075;55.682;37.564;2023-03-09T02:52:42;97552.97;;;2.35;100.00
25084;BME280;13075;55.682;37.564;2023-03-09T02:57:52;97557.25;;;2.36;100.00
25084;BME280;13075;55.682;37.564;2023-03-09T03:00:19;97554.44;;;2.51;100.00
25084;BME280;13075;55.682;37.564;2023-03-09T03:02:50;97555.84;;;2.40;100.00
25084;BME280;13075;55.682;37.564;2023-03-09T03:05:17;97558.59;;;2.19;100.00
25084;BME280;13075;55.682;37.564;2023-03-09T03:07:43;97555.09;;;2.06;100.00
25084;BME280;13075;55.682;37.564;2023-03-09T03:10:10;97559.69;;;2.38;100.00
25084;BME280;13075;55.682;37.564;2023-03-09T03:12:37;97552.16;;;1.94;100.00
25084;BME280;13075;55.682;37.564;2023-03-09T03:15:04;97552.59;;;2.38;100.00
25084;BME280;13075;55.682;37.564;2023-03-09T03:17:30;97556.47;;;2.02;100.00
25084;BME280;13075;55.682;37.564;2023-03-09T03:19:56;97548.84;;;2.20;100.00
25084;BME280;13075;55.682;37.564;2023-03-09T03:22:23;97546.88;;;2.28;100.00
25084;BME280;13075;55.682;37.564;2023-03-09T03:24:49;97556.59;;;2.28;100.00
25084;BME280;13075;55.682;37.564;2023-03-09T03:27:16;97557.56;;;2.14;100.00
25084;BME280;13075;55.682;37.564;2023-03-09T03:29:42;97558.25;;;1.95;100.00
25084;BME280;13075;55.682;37.564;2023-03-09T03:32:07;97553.06;;;2.14;100.00
25084;BME280;13075;55.682;37.564;2023-03-09T03:34:34;97557.88;;;1.98;100.00
25084;BME280;13075;55.682;37.564;2023-03-09T03:37:01;97571.94;;;2.11;100.00
25084;BME280;13075;55.682;37.564;2023-03-09T03:39:28;97545.66;;;2.24;100.00
25084;BME280;13075;55.682;37.564;2023-03-09T03:41:59;97565.03;;;2.10;100.00
25084;BME280;13075;55.682;37.564;2023-03-09T03:44:25;97570.75;;;1.79;100.00
25084;BME280;13075;55.682;37.564;2023-03-09T03:46:51;97565.31;;;1.87;100.00
25084;BME280;13075;55.682;37.564;2023-03-09T03:49:17;97560.38;;;2.12;100.00
25084;BME280;13075;55.682;37.564;2023-03-09T03:51:42;97566.94;;;1.88;100.00
25084;BME280;13075;55.682;37.564;2023-03-09T03:54:08;97560.75;;;2.09;100.00
25084;BME280;13075;55.682;37.564;2023-03-09T03:56:34;97572.63;;;1.92;100.00
25084;BME280;13075;55.682;37.564;2023-03-09T03:59:05;97574.31;;;2.00;100.00
25084;BME280;13075;55.682;37.564;2023-03-09T04:01:31;97581.81;;;1.96;100.00
25084;BME280;13075;55.682;37.564;2023-03-09T04:04:02;97580.38;;;1.94;100.00
25084;BME280;13075;55.682;37.564;2023-03-09T04:06:29;97576.19;;;2.06;100.00
25084;BME280;13075;55.682;37.564;2023-03-09T04:08:58;97573.47;;;1.99;100.00
25084;BME280;13075;55.682;37.564;2023-03-09T04:11:24;97592.59;;;1.73;100.00
25084;BME280;13075;55.682;37.564;2023-03-09T04:13:50;97593.94;;;1.91;100.00
25084;BME280;13075;55.682;37.564;2023-03-09T04:16:17;97592.09;;;1.91;100.00
25084;BME280;13075;55.682;37.564;2023-03-09T04:18:43;97578.97;;;1.98;100.00
25084;BME280;13075;55.682;37.564;2023-03-09T04:21:09;97592.50;;;1.88;100.00
25084;BME280;13075;55.682;37.564;2023-03-09T04:23:35;97592.16;;;1.98;100.00
25084;BME280;13075;55.682;37.564;2023-03-09T04:26:03;97593.19;;;2.03;100.00
25084;BME280;13075;55.682;37.564;2023-03-09T04:28:40;97586.00;;;2.25;100.00
25084;BME280;13075;55.682;37.564;2023-03-09T04:31:10;97605.34;;;2.04;100.00
25084;BME280;13075;55.682;37.564;2023-03-09T04:33:38;97602.88;;;1.68;100.00
25084;BME280;13075;55.682;37.564;2023-03-09T04:36:10;97608.34;;;1.95;100.00
25084;BME280;13075;55.682;37.564;2023-03-09T04:38:36;97615.16;;;1.82;100.00
25084;BME280;13075;55.682;37.564;2023-03-09T04:41:02;97619.41;;;2.11;100.00
25084;BME280;13075;55.682;37.564;2023-03-09T04:43:29;97607.91;;;2.19;100.00
25084;BME280;13075;55.682;37.564;2023-03-09T04:45:55;97610.84;;;2.37;100.00
25084;BME280;13075;55.682;37.564;2023-03-09T04:48:21;97622.28;;;2.16;100.00
25084;BME280;13075;55.682;37.564;2023-03-09T04:50:47;97622.53;;;2.21;100.00
25084;BME280;13075;55.682;37.564;2023-03-09T04:53:13;97637.25;;;2.43;100.00
25084;BME280;13075;55.682;37.564;2023-03-09T04:55:38;97629.59;;;2.21;100.00
25084;BME280;13075;55.682;37.564;2023-03-09T04:58:09;97637.56;;;2.27;100.00
25084;BME280;13075;55.682;37.564;2023-03-09T05:00:35;97639.94;;;3.10;100.00
25084;BME280;13075;55.682;37.564;2023-03-09T05:03:02;97639.66;;;2.92;100.00
25084;BME280;13075;55.682;37.564;2023-03-09T05:05:28;97648.50;;;3.19;100.00
25084;BME280;13075;55.682;37.564;2023-03-09T05:07:56;97640.59;;;3.39;99.08
25084;BME280;13075;55.682;37.564;2023-03-09T05:10:23;97647.31;;;3.41;93.53
25084;BME280;13075;55.682;37.564;2023-03-09T05:12:50;97647.72;;;3.45;95.86
25084;BME280;13075;55.682;37.564;2023-03-09T05:15:20;97649.34;;;3.59;89.24
25084;BME280;13075;55.682;37.564;2023-03-09T05:17:46;97642.66;;;4.15;87.07
25084;BME280;13075;55.682;37.564;2023-03-09T05:20:12;97641.41;;;4.11;80.72
25084;BME280;13075;55.682;37.564;2023-03-09T05:22:47;97640.00;;;4.15;80.31
25084;BME280;13075;55.682;37.564;2023-03-09T05:25:14;97649.34;;;4.31;79.13
25084;BME280;13075;55.682;37.564;2023-03-09T05:27:39;97648.16;;;4.78;76.66
25084;BME280;13075;55.682;37.564;2023-03-09T05:30:07;97641.59;;;4.36;76.58
25084;BME280;13075;55.682;37.564;2023-03-09T05:32:34;97638.91;;;4.43;76.32
25084;BME280;13075;55.682;37.564;2023-03-09T05:35:00;97643.81;;;4.39;75.92
25084;BME280;13075;55.682;37.564;2023-03-09T05:37:26;97645.31;;;4.15;76.71
25084;BME280;13075;55.682;37.564;2023-03-09T05:39:53;97645.53;;;4.78;73.91
25084;BME280;13075;55.682;37.564;2023-03-09T05:42:18;97653.19;;;4.35;72.15
25084;BME280;13075;55.682;37.564;2023-03-09T05:44:45;97649.41;;;4.75;72.98
25084;BME280;13075;55.682;37.564;2023-03-09T05:47:11;97648.66;;;5.06;71.72
25084;BME280;13075;55.682;37.564;2023-03-09T05:49:37;97654.19;;;5.04;76.46
25084;BME280;13075;55.682;37.564;2023-03-09T05:52:02;97649.34;;;5.64;71.47
25084;BME280;13075;55.682;37.564;2023-03-09T05:54:30;97663.53;;;5.07;70.06
25084;BME280;13075;55.682;37.564;2023-03-09T05:56:59;97660.75;;;5.96;68.40
25084;BME280;13075;55.682;37.564;2023-03-09T05:59:26;97655.47;;;6.39;66.34
25084;BME280;13075;55.682;37.564;2023-03-09T06:01:52;97679.09;;;6.47;64.04
25084;BME280;13075;55.682;37.564;2023-03-09T06:04:21;97652.88;;;6.32;64.93
25084;BME280;13075;55.682;37.564;2023-03-09T06:06:54;97675.53;;;6.10;65.15
25084;BME280;13075;55.682;37.564;2023-03-09T06:09:24;97679.72;;;4.92;67.40
25084;BME280;13075;55.682;37.564;2023-03-09T06:11:51;97665.09;;;5.52;68.00
25084;BME280;13075;55.682;37.564;2023-03-09T06:14:19;97674.19;;;6.01;66.38
25084;BME280;13075;55.682;37.564;2023-03-09T06:16:45;97668.47;;;6.65;64.26
25084;BME280;13075;55.682;37.564;2023-03-09T06:19:11;97670.41;;;6.33;64.59
25084;BME280;13075;55.682;37.564;2023-03-09T06:21:38;97678.13;;;7.14;63.45
25084;BME280;13075;55.682;37.564;2023-03-09T06:24:05;97675.84;;;9.04;61.16
25084;BME280;13075;55.682;37.564;2023-03-09T06:26:31;97666.66;;;11.28;63.53
25084;BME280;13075;55.682;37.564;2023-03-09T06:29:03;97674.78;;;10.18;62.60
25084;BME280;13075;55.682;37.564;2023-03-09T06:31:30;97679.19;;;9.51;61.92
25084;BME280;13075;55.682;37.564;2023-03-09T06:33:57;97681.56;;;9.36;61.07
25084;BME280;13075;55.682;37.564;2023-03-09T06:36:24;97687.13;;;8.83;61.19
25084;BME280;13075;55.682;37.564;2023-03-09T06:38:51;97689.44;;;7.39;61.37
25084;BME280;13075;55.682;37.564;2023-03-09T06:41:20;97706.84;;;7.05;62.29
25084;BME280;13075;55.682;37.564;2023-03-09T06:43:56;97704.19;;;7.83;60.74
25084;BME280;13075;55.682;37.564;2023-03-09T06:46:24;97700.81;;;8.75;59.31
25084;BME280;13075;55.682;37.564;2023-03-09T06:48:50;97710.56;;;8.81;59.41
25084;BME280;13075;55.682;37.564;2023-03-09T06:51:16;97723.84;;;8.23;59.97
25084;BME280;13075;55.682;37.564;2023-03-09T06:53:43;97705.72;;;8.66;59.21
25084;BME280;13075;55.682;37.564;2023-03-09T06:56:12;97701.97;;;9.70;59.53
25084;BME280;13075;55.682;37.564;2023-03-09T06:58:38;97709.63;;;9.95;58.97
25084;BME280;13075;55.682;37.564;2023-03-09T07:01:08;97714.41;;;9.65;57.67
25084;BME280;13075;55.682;37.564;2023-03-09T07:03:35;97721.81;;;9.34;58.80
25084;BME280;13075;55.682;37.564;2023-03-09T07:06:01;97715.09;;;9.32;58.09
25084;BME280;13075;55.682;37.564;2023-03-09T07:08:27;97728.25;;;9.50;57.93
25084;BME280;13075;55.682;37.564;2023-03-09T07:10:53;97732.06;;;10.11;57.96
25084;BME280;13075;55.682;37.564;2023-03-09T07:13:18;97723.31;;;11.42;58.21
25084;BME280;13075;55.682;37.564;2023-03-09T07:15:44;97735.50;;;11.54;57.22
25084;BME280;13075;55.682;37.564;2023-03-09T07:18:10;97713.34;;;11.15;53.65
25084;BME280;13075;55.682;37.564;2023-03-09T07:20:40;97733.22;;;10.15;50.19
25084;BME280;13075;55.682;37.564;2023-03-09T07:23:07;97721.19;;;10.29;51.59
25084;BME280;13075;55.682;37.564;2023-03-09T07:25:33;97726.19;;;10.25;51.11
25084;BME280;13075;55.682;37.564;2023-03-09T07:28:02;97726.72;;;10.77;49.84
25084;BME280;13075;55.682;37.564;2023-03-09T07:30:28;97721.72;;;11.89;47.63
25084;BME280;13075;55.682;37.564;2023-03-09T07:32:58;97721.56;;;11.31;45.73
25084;BME280;13075;55.682;37.564;2023-03-09T07:35:24;97721.09;;;12.35;46.29
25084;BME280;13075;55.682;37.564;2023-03-09T07:37:50;97724.59;;;11.17;47.03
25084;BME280;13075;55.682;37.564;2023-03-09T07:40:16;97728.38;;;10.28;47.41
25084;BME280;13075;55.682;37.564;2023-03-09T07:42:42;97726.53;;;10.00;47.18
25084;BME280;13075;55.682;37.564;2023-03-09T07:45:25;97730.75;;;8.77;48.97
25084;BME280;13075;55.682;37.564;2023-03-09T07:47:50;97732.44;;;9.06;48.06
25084;BME280;13075;55.682;37.564;2023-03-09T07:50:16;97743.56;;;8.34;48.92
25084;BME280;13075;55.682;37.564;2023-03-09T07:52:43;97734.91;;;8.50;48.24
25084;BME280;13075;55.682;37.564;2023-03-09T07:55:10;97744.50;;;8.62;48.06
25084;BME280;13075;55.682;37.564;2023-03-09T07:57:37;97741.84;;;8.28;48.40
25084;BME280;13075;55.682;37.564;2023-03-09T08:00:04;97743.81;;;8.32;49.30
25084;BME280;13075;55.682;37.564;2023-03-09T08:02:37;97743.84;;;8.02;47.05
25084;BME280;13075;55.682;37.564;2023-03-09T08:05:05;97749.97;;;7.73;48.50
25084;BME280;13075;55.682;37.564;2023-03-09T08:07:31;97740.72;;;7.76;49.69
25084;BME280;13075;55.682;37.564;2023-03-09T08:09:57;97750.63;;;7.87;49.83
25084;BME280;13075;55.682;37.564;2023-03-09T08:12:23;97748.41;;;8.25;48.27
25084;BME280;13075;55.682;37.564;2023-03-09T08:14:48;97760.28;;;8.99;47.62
25084;BME280;13075;55.682;37.564;2023-03-09T08:17:14;97752.53;;;8.74;47.60
25084;BME280;13075;55.682;37.564;2023-03-09T08:19:40;97747.75;;;8.53;47.58
25084;BME280;13075;55.682;37.564;2023-03-09T08:22:05;97756.75;;;8.29;47.86
25084;BME280;13075;55.682;37.564;2023-03-09T08:24:31;97748.53;;;7.89;48.26
25084;BME280;13075;55.682;37.564;2023-03-09T08:26:57;97755.16;;;8.28;47.79
25084;BME280;13075;55.682;37.564;2023-03-09T08:29:22;97744.94;;;7.95;47.47
25084;BME280;13075;55.682;37.564;2023-03-09T08:31:48;97746.94;;;8.52;47.35
25084;BME280;13075;55.682;37.564;2023-03-09T08:34:13;97746.94;;;8.52;46.49
25084;BME280;13075;55.682;37.564;2023-03-09T08:36:39;97738.44;;;8.21;47.08
25084;BME280;13075;55.682;37.564;2023-03-09T08:39:05;97750.31;;;8.48;47.57
25084;BME280;13075;55.682;37.564;2023-03-09T08:41:31;97745.81;;;8.18;46.92
25084;BME280;13075;55.682;37.564;2023-03-09T08:43:56;97744.03;;;8.01;46.79
25084;BME280;13075;55.682;37.564;2023-03-09T08:46:23;97745.31;;;7.98;47.33
25084;BME280;13075;55.682;37.564;2023-03-09T08:48:49;97739.22;;;8.09;46.96
25084;BME280;13075;55.682;37.564;2023-03-09T08:51:14;97739.25;;;7.50;47.62
25084;BME280;13075;55.682;37.564;2023-03-09T08:53:40;97745.56;;;8.08;46.89
25084;BME280;13075;55.682;37.564;2023-03-09T08:56:08;97734.66;;;7.98;46.64
25084;BME280;13075;55.682;37.564;2023-03-09T08:58:34;97732.47;;;8.60;45.48
25084;BME280;13075;55.682;37.564;2023-03-09T09:01:01;97730.97;;;8.41;45.67
25084;BME280;13075;55.682;37.564;2023-03-09T09:03:28;97730.94;;;8.29;45.95
25084;BME280;13075;55.682;37.564;2023-03-09T09:05:55;97738.22;;;8.34;46.31
25084;BME280;13075;55.682;37.564;2023-03-09T09:08:21;97733.97;;;8.03;46.90
25084;BME280;13075;55.682;37.564;2023-03-09T09:10:46;97732.56;;;8.42;46.16
25084;BME280;13075;55.682;37.564;2023-03-09T09:13:12;97741.25;;;8.37;46.21
25084;BME280;13075;55.682;37.564;2023-03-09T09:15:38;97727.47;;;8.75;45.42
25084;BME280;13075;55.682;37.564;2023-03-09T09:18:05;97723.88;;;8.93;45.70
25084;BME280;13075;55.682;37.564;2023-03-09T09:20:31;97736.00;;;8.19;45.91
25084;BME280;13075;55.682;37.564;2023-03-09T09:22:57;97725.41;;;8.54;45.44
25084;BME280;13075;55.682;37.564;2023-03-09T09:25:24;97733.44;;;7.71;46.27
25084;BME280;13075;55.682;37.564;2023-03-09T09:27:50;97735.50;;;7.39;47.56
25084;BME280;13075;55.682;37.564;2023-03-09T09:30:17;97733.66;;;7.40;46.91
25084;BME280;13075;55.682;37.564;2023-03-09T09:32:43;97731.19;;;7.38;47.09
25084;BME280;13075;55.682;37.564;2023-03-09T09:35:10;97733.22;;;7.25;47.34
25084;BME280;13075;55.682;37.564;2023-03-09T09:37:37;97739.06;;;7.63;46.92
25084;BME280;13075;55.682;37.564;2023-03-09T09:40:10;97742.22;;;7.06;46.84
25084;BME280;13075;55.682;37.564;2023-03-09T09:42:39;97729.13;;;8.00;46.71
25084;BME280;13075;55.682;37.564;2023-03-09T09:45:18;97736.84;;;7.60;46.42
25084;BME280;13075;55.682;37.564;2023-03-09T09:47:47;97739.50;;;7.12;47.50
25084;BME280;13075;55.682;37.564;2023-03-09T09:50:13;97733.16;;;7.61;47.15
25084;BME280;13075;55.682;37.564;2023-03-09T09:55:33;97733.09;;;7.20;47.21
25084;BME280;13075;55.682;37.564;2023-03-09T09:58:05;97736.03;;;7.30;47.98
25084;BME280;13075;55.682;37.564;2023-03-09T10:00:36;97729.81;;;7.00;49.28
25084;BME280;13075;55.682;37.564;2023-03-09T10:08:23;97726.66;;;7.57;49.32
25084;BME280;13075;55.682;37.564;2023-03-09T10:10:50;97730.53;;;8.14;48.82
25084;BME280;13075;55.682;37.564;2023-03-09T10:13:23;97737.41;;;7.50;49.66
25084;BME280;13075;55.682;37.564;2023-03-09T10:15:53;97732.19;;;7.85;49.71
25084;BME280;13075;55.682;37.564;2023-03-09T10:18:28;97726.78;;;7.62;49.81
25084;BME280;13075;55.682;37.564;2023-03-09T10:20:54;97727.78;;;7.49;50.68
25084;BME280;13075;55.682;37.564;2023-03-09T10:23:24;97734.34;;;6.99;52.72
25084;BME280;13075;55.682;37.564;2023-03-09T10:26:01;97730.75;;;7.23;54.01
25084;BME280;13075;55.682;37.564;2023-03-09T10:28:34;97723.84;;;6.86;55.04
25084;BME280;13075;55.682;37.564;2023-03-09T10:31:02;97719.63;;;7.33;55.32
25084;BME280;13075;55.682;37.564;2023-03-09T10:33:40;97717.59;;;7.28;56.87
25084;BME280;13075;55.682;37.564;2023-03-09T10:36:27;97714.47;;;7.20;57.50
25084;BME280;13075;55.682;37.564;2023-03-09T10:38:55;97720.44;;;6.97;57.21
25084;BME280;13075;55.682;37.564;2023-03-09T10:41:22;97719.53;;;6.67;58.33
25084;BME280;13075;55.682;37.564;2023-03-09T10:43:48;97713.28;;;7.16;58.12
25084;BME280;13075;55.682;37.564;2023-03-09T10:46:17;97708.09;;;7.03;59.28
25084;BME280;13075;55.682;37.564;2023-03-09T10:48:45;97713.69;;;6.58;60.92
25084;BME280;13075;55.682;37.564;2023-03-09T10:51:30;97710.00;;;6.59;64.79
25084;BME280;13075;55.682;37.564;2023-03-09T10:54:14;97719.69;;;6.29;67.64
25084;BME280;13075;55.682;37.564;2023-03-09T10:56:45;97711.81;;;6.41;66.73
25084;BME280;13075;55.682;37.564;2023-03-09T10:59:20;97709.94;;;6.48;68.44
25084;BME280;13075;55.682;37.564;2023-03-09T11:01:48;97710.72;;;6.48;69.36
25084;BME280;13075;55.682;37.564;2023-03-09T11:06:53;97703.28;;;6.14;70.38
25084;BME280;13075;55.682;37.564;2023-03-09T11:14:44;97693.13;;;6.72;76.05
25084;BME280;13075;55.682;37.564;2023-03-09T11:17:40;97705.72;;;6.15;79.11
25084;BME280;13075;55.682;37.564;2023-03-09T11:22:46;97705.81;;;6.02;79.57
25084;BME280;13075;55.682;37.564;2023-03-09T11:25:17;97693.84;;;6.61;78.67
25084;BME280;13075;55.682;37.564;2023-03-09T11:27:51;97695.06;;;6.40;78.40
25084;BME280;13075;55.682;37.564;2023-03-09T11:30:22;97691.03;;;5.82;80.69
25084;BME280;13075;55.682;37.564;2023-03-09T11:32:52;97695.16;;;6.09;82.34
25084;BME280;13075;55.682;37.564;2023-03-09T11:35:19;97696.19;;;6.08;85.44
25084;BME280;13075;55.682;37.564;2023-03-09T11:37:51;97689.16;;;6.63;83.14
25084;BME280;13075;55.682;37.564;2023-03-09T11:40:22;97691.53;;;6.46;82.10
25084;BME280;13075;55.682;37.564;2023-03-09T11:42:55;97700.25;;;6.53;84.27
25084;BME280;13075;55.682;37.564;2023-03-09T11:45:27;97691.13;;;6.67;83.52
25084;BME280;13075;55.682;37.564;2023-03-09T11:48:07;97698.00;;;6.75;88.18
25084;BME280;13075;55.682;37.564;2023-03-09T11:50:49;97693.66;;;6.38;86.23
25084;BME280;13075;55.682;37.564;2023-03-09T11:54:05;97691.94;;;6.68;85.67
25084;BME280;13075;55.682;37.564;2023-03-09T11:56:29;97684.75;;;7.05;79.79
25084;BME280;13075;55.682;37.564;2023-03-09T12:02:03;97678.50;;;6.99;79.96
25084;BME280;13075;55.682;37.564;2023-03-09T12:04:36;97684.94;;;6.73;80.88
25084;BME280;13075;55.682;37.564;2023-03-09T12:07:24;97680.72;;;7.02;83.39
25084;BME280;13075;55.682;37.564;2023-03-09T12:10:39;97686.69;;;6.79;80.35
25084;BME280;13075;55.682;37.564;2023-03-09T12:12:48;97690.81;;;6.39;86.82
25084;BME280;13075;55.682;37.564;2023-03-09T12:15:24;97683.06;;;6.56;90.58
25084;BME280;13075;55.682;37.564;2023-03-09T12:18:00;97682.06;;;6.14;88.79
25084;BME280;13075;55.682;37.564;2023-03-09T12:20:32;97677.34;;;6.16;89.18
25084;BME280;13075;55.682;37.564;2023-03-09T12:22:59;97683.88;;;6.13;94.69
25084;BME280;13075;55.682;37.564;2023-03-09T12:25:25;97680.94;;;6.64;93.26
25084;BME280;13075;55.682;37.564;2023-03-09T12:28:01;97684.13;;;6.73;90.17
25084;BME280;13075;55.682;37.564;2023-03-09T12:30:30;97679.25;;;6.09;92.14
25084;BME280;13075;55.682;37.564;2023-03-09T12:32:58;97680.56;;;6.18;93.68
25084;BME280;13075;55.682;37.564;2023-03-09T12:38:19;97675.94;;;6.13;94.67
25084;BME280;13075;55.682;37.564;2023-03-09T12:40:46;97683.22;;;5.62;93.86
25084;BME280;13075;55.682;37.564;2023-03-09T12:45:48;97687.47;;;6.01;99.20
25084;BME280;13075;55.682;37.564;2023-03-09T12:48:24;97680.22;;;6.33;92.88
25084;BME280;13075;55.682;37.564;2023-03-09T12:51:16;97687.47;;;6.44;97.70
25084;BME280;13075;55.682;37.564;2023-03-09T12:56:29;97676.56;;;6.34;96.91
25084;BME280;13075;55.682;37.564;2023-03-09T12:58:57;97683.41;;;5.67;97.92
25084;BME280;13075;55.682;37.564;2023-03-09T13:03:50;97666.22;;;6.25;90.40
25084;BME280;13075;55.682;37.564;2023-03-09T13:29:56;97657.50;;;5.94;90.53
25084;BME280;13075;55.682;37.564;2023-03-09T13:32:36;97649.97;;;6.15;91.73
25084;BME280;13075;55.682;37.564;2023-03-09T13:35:18;97651.47;;;6.30;89.51
25084;BME280;13075;55.682;37.564;2023-03-09T13:37:47;97643.34;;;6.43;87.03
25084;BME280;13075;55.682;37.564;2023-03-09T13:40:27;97636.78;;;6.81;84.95
25084;BME280;13075;55.682;37.564;2023-03-09T13:42:55;97646.47;;;6.40;82.55
25084;BME280;13075;55.682;37.564;2023-03-09T13:45:30;97640.25;;;6.27;84.49
25084;BME280;13075;55.682;37.564;2023-03-09T13:48:02;97628.53;;;6.53;84.55
25084;BME280;13075;55.682;37.564;2023-03-09T13:50:30;97644.75;;;6.81;79.41
25084;BME280;13075;55.682;37.564;2023-03-09T13:55:24;97631.94;;;6.60;77.86
25084;BME280;13075;55.682;37.564;2023-03-09T13:57:51;97625.88;;;6.35;79.15
25084;BME280;13075;55.682;37.564;2023-03-09T14:00:20;97630.59;;;6.69;77.50
25084;BME280;13075;55.682;37.564;2023-03-09T14:02:48;97623.06;;;6.66;76.82
25084;BME280;13075;55.682;37.564;2023-03-09T14:07:46;97628.34;;;6.55;76.61
25084;BME280;13075;55.682;37.564;2023-03-09T14:10:37;97637.66;;;6.21;78.19
25084;BME280;13075;55.682;37.564;2023-03-09T14:13:19;97639.03;;;6.05;76.83
25084;BME280;13075;55.682;37.564;2023-03-09T14:16:10;97629.84;;;6.26;80.67
25084;BME280;13075;55.682;37.564;2023-03-09T14:18:49;97641.22;;;5.90;82.33